createdAt,value
2024-01-15T00:01:17.691Z,12.60
2024-01-15T00:03:48.124Z,12.83
2024-01-15T00:06:16.833Z,13.20
2024-01-15T00:08:45.271Z,13.00
2024-01-15T00:11:13.619Z,14.73
2024-01-15T00:13:42.476Z,14.77
2024-01-15T00:16:11.503Z,13.23
2024-01-15T00:18:41.380Z,15.37
2024-01-15T00:21:09.779Z,12.80
2024-01-15T00:23:38.119Z,15.73
2024-01-15T00:26:08.683Z,16.07
2024-01-15T00:28:39.108Z,14.80
2024-01-15T00:31:07.872Z,14.07
2024-01-15T00:33:36.577Z,13.63
2024-01-15T00:36:07.086Z,15.43
2024-01-15T00:38:35.508Z,15.67
2024-01-15T00:41:04.105Z,15.77
2024-01-15T00:43:32.396Z,13.70
2024-01-15T00:46:00.839Z,14.70
2024-01-15T00:48:29.253Z,15.93
2024-01-15T00:50:57.658Z,15.87
2024-01-15T00:53:28.308Z,15.03
2024-01-15T00:55:56.735Z,15.13
2024-01-15T00:58:25.084Z,13.87
2024-01-15T01:00:53.564Z,16.33
2024-01-15T01:03:22.158Z,16.47
2024-01-15T01:05:51.864Z,15.63
2024-01-15T01:08:20.230Z,14.80
2024-01-15T01:10:50.042Z,12.83
2024-01-15T01:13:18.450Z,16.13
2024-01-15T01:15:47.046Z,17.00
2024-01-15T01:18:15.660Z,16.50
2024-01-15T01:20:44.168Z,14.10
2024-01-15T01:23:12.590Z,16.77
2024-01-15T01:25:41.028Z,16.50
2024-01-15T01:28:10.871Z,16.53
2024-01-15T01:30:39.293Z,16.17
2024-01-15T01:33:07.883Z,18.03
2024-01-15T01:35:36.387Z,16.57
2024-01-15T01:38:04.737Z,14.97
2024-01-15T01:40:33.080Z,16.83
2024-01-15T01:43:01.468Z,17.07
2024-01-15T01:45:31.447Z,14.07
2024-01-15T01:48:00.090Z,14.37
2024-01-15T01:50:28.252Z,9.27
2024-01-15T01:52:56.628Z,16.27
2024-01-15T01:55:27.494Z,15.97
2024-01-15T01:57:56.669Z,15.30
2024-01-15T02:00:25.555Z,16.00
2024-01-15T02:02:55.616Z,15.43
2024-01-15T02:05:25.537Z,15.37
2024-01-15T02:07:53.961Z,15.50
2024-01-15T02:10:22.267Z,16.77
2024-01-15T02:12:50.601Z,16.00
2024-01-15T02:15:19.234Z,14.77
2024-01-15T02:18:02.580Z,14.47
2024-01-15T02:20:31.465Z,14.47
2024-01-15T02:23:07.399Z,14.43
2024-01-15T02:25:35.730Z,13.87
2024-01-15T02:28:04.276Z,14.13
2024-01-15T02:30:33.125Z,14.60
2024-01-15T02:33:01.573Z,13.50
2024-01-15T02:35:30.032Z,15.10
2024-01-15T02:37:58.411Z,12.10
2024-01-15T02:40:28.181Z,15.63
2024-01-15T02:42:56.669Z,15.10
2024-01-15T02:45:25.175Z,12.93
2024-01-15T02:47:53.552Z,13.60
2024-01-15T02:50:21.039Z,14.60
2024-01-15T02:52:49.310Z,13.83
2024-01-15T02:55:17.714Z,10.37
2024-01-15T02:57:47.645Z,12.80
2024-01-15T03:00:16.709Z,8.90
2024-01-15T03:02:48.907Z,12.23
2024-01-15T03:05:16.877Z,12.60
2024-01-15T03:07:45.330Z,13.37
2024-01-15T03:10:13.672Z,11.70
2024-01-15T03:12:42.097Z,13.07
2024-01-15T03:15:12.231Z,13.70
2024-01-15T03:17:40.612Z,10.70
2024-01-15T03:20:09.493Z,11.97
2024-01-15T03:22:38.019Z,11.83
2024-01-15T03:25:06.648Z,11.70
2024-01-15T03:27:35.352Z,13.07
2024-01-15T03:30:04.466Z,11.87
2024-01-15T03:32:34.397Z,12.23
2024-01-15T03:35:02.964Z,13.00
2024-01-15T03:37:31.377Z,12.27
2024-01-15T03:40:00.033Z,10.83
2024-01-15T03:42:28.463Z,12.63
2024-01-15T03:44:56.965Z,11.80
2024-01-15T03:47:25.493Z,11.00
2024-01-15T03:49:55.355Z,9.40
2024-01-15T03:52:23.833Z,12.60
2024-01-15T03:54:52.344Z,10.93
2024-01-15T03:57:20.824Z,12.30
2024-01-15T03:59:49.297Z,11.07
2024-01-15T04:02:17.771Z,11.80
2024-01-15T04:04:46.609Z,11.13
2024-01-15T04:07:16.643Z,12.20
2024-01-15T04:09:45.062Z,10.33
2024-01-15T04:12:13.601Z,9.87
2024-01-15T04:14:41.962Z,10.40
2024-01-15T04:17:09.927Z,9.97
2024-01-15T04:19:38.306Z,11.27
2024-01-15T04:22:06.979Z,10.67
2024-01-15T04:24:36.702Z,9.33
2024-01-15T04:27:05.170Z,10.33
2024-01-15T04:29:33.465Z,9.63
2024-01-15T04:32:01.975Z,10.63
2024-01-15T04:34:30.537Z,11.53
2024-01-15T04:36:59.068Z,8.83
2024-01-15T04:39:27.442Z,7.40
2024-01-15T04:41:57.190Z,9.07
2024-01-15T04:44:25.575Z,9.80
2024-01-15T04:46:54.322Z,9.80
2024-01-15T04:49:22.834Z,10.63
2024-01-15T04:51:51.351Z,8.90
2024-01-15T04:54:19.773Z,9.63
2024-01-15T04:56:48.158Z,9.23
2024-01-15T04:59:17.829Z,10.17
2024-01-15T05:01:46.219Z,8.97
2024-01-15T05:04:14.646Z,9.00
2024-01-15T05:06:43.066Z,9.43
2024-01-15T05:09:11.414Z,9.17
2024-01-15T05:11:39.775Z,9.50
2024-01-15T05:14:08.089Z,9.03
2024-01-15T05:16:37.989Z,9.00
2024-01-15T05:19:06.368Z,6.27
2024-01-15T05:21:34.791Z,9.17
2024-01-15T05:24:03.161Z,9.47
2024-01-15T05:26:31.487Z,9.37
2024-01-15T05:28:59.879Z,9.83
2024-01-15T05:31:28.470Z,10.17
2024-01-15T05:33:58.333Z,9.03
2024-01-15T05:36:26.672Z,8.57
2024-01-15T05:38:55.131Z,8.40
2024-01-15T05:41:23.606Z,8.87
2024-01-15T05:43:52.024Z,9.30
2024-01-15T05:46:20.376Z,8.07
2024-01-15T05:48:48.820Z,8.07
2024-01-15T05:51:18.591Z,7.77
2024-01-15T05:53:48.523Z,10.20
2024-01-15T05:56:18.087Z,8.93
2024-01-15T05:58:46.397Z,8.40
2024-01-15T06:01:14.824Z,7.53
2024-01-15T06:03:43.263Z,8.10
2024-01-15T06:06:11.778Z,9.43
2024-01-15T06:08:41.982Z,7.73
2024-01-15T06:11:10.336Z,7.40
2024-01-15T06:13:38.640Z,8.50
2024-01-15T06:16:14.449Z,8.37
2024-01-15T06:18:42.974Z,8.53
2024-01-15T06:21:13.777Z,8.90
2024-01-15T06:23:43.554Z,8.60
2024-01-15T06:26:11.912Z,7.63
2024-01-15T06:28:40.192Z,8.43
2024-01-15T06:31:09.223Z,7.90
2024-01-15T06:33:37.810Z,8.73
2024-01-15T06:36:06.547Z,7.87
2024-01-15T06:38:34.586Z,10.20
2024-01-15T06:41:04.543Z,9.87
2024-01-15T06:43:32.894Z,8.33
2024-01-15T06:46:04.212Z,8.90
2024-01-15T06:48:34.741Z,8.77
2024-01-15T06:51:03.076Z,8.93
2024-01-15T06:53:31.389Z,9.70
2024-01-15T06:55:59.723Z,9.17
2024-01-15T06:58:29.436Z,8.10
2024-01-15T07:00:57.632Z,9.23
2024-01-15T07:03:26.283Z,9.53
2024-01-15T07:05:54.631Z,9.10
2024-01-15T07:08:22.931Z,9.17
2024-01-15T07:10:51.202Z,10.37
2024-01-15T07:13:19.662Z,9.47
2024-01-15T07:15:49.637Z,8.23
2024-01-15T07:18:18.093Z,10.07
2024-01-15T07:20:46.533Z,9.67
2024-01-15T07:23:14.856Z,8.27
2024-01-15T07:25:43.492Z,10.33
2024-01-15T07:28:12.196Z,10.60
2024-01-15T07:30:40.693Z,10.37
2024-01-15T07:33:10.574Z,9.33
2024-01-15T07:35:39.457Z,9.93
2024-01-15T07:38:07.971Z,8.17
2024-01-15T07:40:36.591Z,10.27
2024-01-15T07:43:04.954Z,8.50
2024-01-15T07:45:33.747Z,9.47
2024-01-15T07:48:02.270Z,9.33
2024-01-15T07:50:32.039Z,10.17
2024-01-15T07:53:00.344Z,9.33
2024-01-15T07:55:28.317Z,9.33
2024-01-15T07:58:06.786Z,9.47
2024-01-15T08:00:43.872Z,10.77
2024-01-15T08:03:12.537Z,9.33
2024-01-15T08:05:42.336Z,9.77
2024-01-15T08:08:10.726Z,10.00
2024-01-15T08:10:39.105Z,10.43
2024-01-15T08:13:09.056Z,10.00
2024-01-15T08:15:37.524Z,8.47
2024-01-15T08:18:06.434Z,10.33
2024-01-15T08:20:34.900Z,11.27
2024-01-15T08:23:04.791Z,10.30
2024-01-15T08:25:33.242Z,9.23
2024-01-15T08:28:01.811Z,8.63
2024-01-15T08:30:30.255Z,10.03
2024-01-15T08:33:04.746Z,9.50
2024-01-15T08:35:37.107Z,10.50
2024-01-15T08:38:07.074Z,9.70
2024-01-15T08:40:35.386Z,10.13
2024-01-15T08:43:04.233Z,9.17
2024-01-15T08:45:32.944Z,9.77
2024-01-15T08:48:02.239Z,11.10
2024-01-15T08:50:30.717Z,9.00
2024-01-15T08:52:58.720Z,8.27
2024-01-15T08:55:28.466Z,10.80
2024-01-15T08:57:56.799Z,9.77
2024-01-15T09:00:25.260Z,10.43
2024-01-15T09:02:53.669Z,11.20
2024-01-15T09:05:22.013Z,10.50
2024-01-15T09:07:52.523Z,10.07
2024-01-15T09:10:21.187Z,9.87
2024-01-15T09:12:51.243Z,9.33
2024-01-15T09:15:20.267Z,8.90
2024-01-15T09:17:48.926Z,9.37
2024-01-15T09:20:17.257Z,9.43
2024-01-15T09:22:46.528Z,9.07
2024-01-15T09:25:15.194Z,8.47
2024-01-15T09:27:43.563Z,5.83
2024-01-15T09:30:14.135Z,8.30
2024-01-15T09:32:42.576Z,7.80
2024-01-15T09:35:11.154Z,7.33
2024-01-15T09:37:46.909Z,7.23
2024-01-15T09:40:17.405Z,8.53
2024-01-15T09:42:46.467Z,7.30
2024-01-15T09:45:16.591Z,8.77
2024-01-15T09:47:46.530Z,9.10
2024-01-15T09:50:17.133Z,11.30
2024-01-15T09:52:46.989Z,8.27
2024-01-15T09:55:17.063Z,9.83
2024-01-15T09:57:47.203Z,9.77
2024-01-15T10:00:17.630Z,11.07
2024-01-15T10:02:45.932Z,8.23
2024-01-15T10:05:14.247Z,8.73
2024-01-15T10:07:43.300Z,8.37
2024-01-15T10:10:14.017Z,8.83
2024-01-15T10:12:42.504Z,9.53
2024-01-15T10:15:13.086Z,8.23
2024-01-15T10:17:43.120Z,8.03
2024-01-15T10:20:13.328Z,8.50
2024-01-15T10:22:43.572Z,8.47
2024-01-15T10:25:15.748Z,8.70
2024-01-15T10:27:44.104Z,8.27
2024-01-15T10:30:14.608Z,8.47
2024-01-15T10:32:44.416Z,8.10
2024-01-15T10:35:13.231Z,8.27
2024-01-15T10:37:41.835Z,8.07
2024-01-15T10:40:10.834Z,8.47
2024-01-15T10:42:39.246Z,8.27
2024-01-15T10:45:10.130Z,7.47
2024-01-15T10:47:38.394Z,7.10
2024-01-15T10:50:09.373Z,6.07
2024-01-15T10:52:38.143Z,7.27
2024-01-15T10:55:11.022Z,6.30
2024-01-15T10:57:42.921Z,6.73
2024-01-15T11:00:16.283Z,6.17
2024-01-15T11:02:46.055Z,6.67
2024-01-15T11:05:18.625Z,5.97
2024-01-15T11:07:47.171Z,6.53
2024-01-15T11:10:30.392Z,5.97
2024-01-15T11:12:58.794Z,5.23
2024-01-15T11:15:30.298Z,4.70
2024-01-15T11:18:02.469Z,4.77
2024-01-15T11:20:33.683Z,5.33
2024-01-15T11:23:02.195Z,4.83
2024-01-15T11:25:39.485Z,4.80
2024-01-15T11:28:07.986Z,4.60
2024-01-15T11:30:37.957Z,4.93
2024-01-15T11:33:08.552Z,4.73
2024-01-15T11:35:57.908Z,4.73
2024-01-15T11:38:30.357Z,5.20
2024-01-15T11:40:59.227Z,4.73
2024-01-15T11:43:27.531Z,5.17
2024-01-15T11:45:55.960Z,5.27
2024-01-15T11:48:27.928Z,5.00
2024-01-15T11:50:56.294Z,4.83
2024-01-15T11:53:30.925Z,4.83
2024-01-15T11:56:02.130Z,5.10
2024-01-15T11:58:30.522Z,4.93
2024-01-15T12:00:59.116Z,4.87
2024-01-15T12:03:27.704Z,4.73
2024-01-15T12:05:56.161Z,5.17
2024-01-15T12:08:25.141Z,5.33
2024-01-15T12:10:53.709Z,4.80
2024-01-15T12:13:23.483Z,5.03
2024-01-15T12:15:51.957Z,5.63
2024-01-15T12:18:21.594Z,5.30
2024-01-15T12:20:50.989Z,4.47
2024-01-15T12:23:19.836Z,5.30
2024-01-15T12:25:48.588Z,4.30
2024-01-15T12:28:17.592Z,4.30
2024-01-15T12:30:51.410Z,3.30
2024-01-15T12:33:21.540Z,4.80
2024-01-15T12:35:50.027Z,4.73
2024-01-15T12:38:18.327Z,4.07
2024-01-15T12:40:48.404Z,3.50
2024-01-15T12:43:16.831Z,2.70
2024-01-15T12:45:45.144Z,3.20
2024-01-15T12:48:16.869Z,3.03
2024-01-15T12:50:46.646Z,2.63
2024-01-15T12:53:14.976Z,3.00
2024-01-15T12:55:43.247Z,3.37
2024-01-15T12:58:11.641Z,3.23
2024-01-15T13:00:39.709Z,2.50
2024-01-15T13:03:08.121Z,3.47
2024-01-15T13:05:38.648Z,2.97
2024-01-15T13:08:07.466Z,2.70
2024-01-15T13:10:35.831Z,2.10
2024-01-15T13:13:04.278Z,2.23
2024-01-15T13:15:32.829Z,1.83
2024-01-15T13:18:01.409Z,2.53
2024-01-15T13:20:29.892Z,2.37
2024-01-15T13:22:59.593Z,2.80
2024-01-15T13:25:27.846Z,2.43
2024-01-15T13:27:56.238Z,2.63
2024-01-15T13:30:24.665Z,2.43
2024-01-15T13:32:53.654Z,3.50
2024-01-15T13:35:22.009Z,2.50
2024-01-15T13:37:50.331Z,2.87
2024-01-15T13:40:21.253Z,2.73
2024-01-15T13:42:49.949Z,3.23
2024-01-15T13:45:18.991Z,3.30
2024-01-15T13:47:47.414Z,3.57
2024-01-15T13:50:15.833Z,4.07
2024-01-15T13:52:44.305Z,3.80
2024-01-15T13:55:12.723Z,3.87
2024-01-15T13:57:42.564Z,4.10
2024-01-15T14:00:13.606Z,3.07
2024-01-15T14:02:42.966Z,3.40
2024-01-15T14:05:13.764Z,4.10
2024-01-15T14:07:42.741Z,2.43
2024-01-15T14:10:11.497Z,2.93
2024-01-15T14:12:40.775Z,1.63
2024-01-15T14:15:11.264Z,2.80
2024-01-15T14:17:40.392Z,0.90
2024-01-15T14:20:11.160Z,1.97
2024-01-15T14:22:39.685Z,2.10
2024-01-15T14:25:08.157Z,1.80
2024-01-15T14:27:37.508Z,1.30
2024-01-15T14:30:07.090Z,1.40
2024-01-15T14:32:37.000Z,1.30
2024-01-15T14:35:06.317Z,1.27
2024-01-15T14:37:34.673Z,1.50
2024-01-15T14:40:03.741Z,1.50
2024-01-15T14:42:32.152Z,1.23
2024-01-15T14:45:00.600Z,1.17
2024-01-15T14:47:28.972Z,1.40
2024-01-15T14:49:58.847Z,1.77
2024-01-15T14:52:27.236Z,1.23
2024-01-15T14:54:55.567Z,1.87
2024-01-15T14:57:24.003Z,1.83
2024-01-15T14:59:52.498Z,1.73
2024-01-15T15:02:21.326Z,2.50
2024-01-15T15:04:50.321Z,1.60
2024-01-15T15:07:19.977Z,1.27
2024-01-15T15:09:48.163Z,1.07
2024-01-15T15:12:16.796Z,1.43
2024-01-15T15:14:55.815Z,1.17
2024-01-15T15:17:28.581Z,1.30
2024-01-15T15:19:57.252Z,1.50
2024-01-15T15:22:27.143Z,1.87
2024-01-15T15:24:56.222Z,1.70
2024-01-15T15:27:24.610Z,1.47
2024-01-15T15:29:52.989Z,1.37
2024-01-15T15:32:21.317Z,1.53
2024-01-15T15:34:49.988Z,1.37
2024-01-15T15:37:18.900Z,1.27
2024-01-15T15:39:48.698Z,1.03
2024-01-15T15:42:17.205Z,0.93
2024-01-15T15:44:47.671Z,1.20
2024-01-15T15:47:16.743Z,1.57
2024-01-15T15:49:45.857Z,1.47
2024-01-15T15:52:14.364Z,1.37
2024-01-15T15:54:42.773Z,2.50
2024-01-15T15:57:12.962Z,1.60
2024-01-15T15:59:41.242Z,0.97
2024-01-15T16:02:09.677Z,1.23
2024-01-15T16:04:38.304Z,0.80
2024-01-15T16:07:10.943Z,1.40
2024-01-15T16:09:40.954Z,0.87
2024-01-15T16:12:09.506Z,1.37
2024-01-15T16:14:39.309Z,1.17
2024-01-15T16:23:14.480Z,1.30
2024-01-15T16:23:27.996Z,1.50
2024-01-15T16:23:43.545Z,1.27
2024-01-15T16:25:32.805Z,1.10
2024-01-15T16:28:01.415Z,1.43
2024-01-15T16:30:37.443Z,1.70
2024-01-15T16:33:13.633Z,1.40
2024-01-15T16:35:42.119Z,1.20
2024-01-15T16:38:10.713Z,1.73
2024-01-15T16:40:40.397Z,0.93
2024-01-15T16:43:09.827Z,1.27
2024-01-15T16:45:39.712Z,0.97
2024-01-15T16:48:08.603Z,2.20
2024-01-15T16:50:36.540Z,1.90
2024-01-15T16:53:04.980Z,1.97
2024-01-15T16:55:33.310Z,2.00
2024-01-15T16:58:01.612Z,1.90
2024-01-15T17:00:29.953Z,2.63
2024-01-15T17:02:59.653Z,2.10
2024-01-15T17:05:28.202Z,1.33
2024-01-15T17:07:56.668Z,1.90
2024-01-15T17:10:25.002Z,1.57
2024-01-15T17:12:53.311Z,2.13
2024-01-15T17:15:21.742Z,1.67
2024-01-15T17:17:50.151Z,1.53
2024-01-15T17:20:20.027Z,1.50
2024-01-15T17:22:48.469Z,1.40
2024-01-15T17:25:16.769Z,0.90
2024-01-15T17:27:45.072Z,2.90
2024-01-15T17:30:13.622Z,1.90
2024-01-15T17:32:41.959Z,2.47
2024-01-15T17:35:10.746Z,2.33
2024-01-15T17:37:40.457Z,2.83
2024-01-15T17:40:10.879Z,3.37
2024-01-15T17:42:39.292Z,2.70
2024-01-15T17:45:08.622Z,2.57
2024-01-15T17:47:37.183Z,3.20
2024-01-15T17:50:05.709Z,3.17
2024-01-15T17:52:34.083Z,3.27
2024-01-15T17:55:03.877Z,4.17
2024-01-15T17:57:32.178Z,2.93
2024-01-15T18:00:00.557Z,3.57
2024-01-15T18:02:28.903Z,3.80
2024-01-15T18:04:57.492Z,4.27
2024-01-15T18:07:27.335Z,2.77
2024-01-15T18:09:56.521Z,4.03
2024-01-15T18:12:26.723Z,3.70
2024-01-15T18:14:55.540Z,4.30
2024-01-15T18:17:24.526Z,3.93
2024-01-15T18:19:52.964Z,5.03
2024-01-15T18:22:21.502Z,4.80
2024-01-15T18:24:50.161Z,4.60
2024-01-15T18:27:19.104Z,6.83
2024-01-15T18:29:48.936Z,6.87
2024-01-15T18:32:17.323Z,3.93
2024-01-15T18:34:45.708Z,5.50
2024-01-15T18:37:14.006Z,7.67
2024-01-15T18:39:45.037Z,6.50
2024-01-15T18:42:13.727Z,5.43
2024-01-15T18:44:42.740Z,7.13
2024-01-15T18:47:12.661Z,6.77
2024-01-15T18:49:41.030Z,5.33
2024-01-15T18:52:09.304Z,5.57
2024-01-15T18:54:37.670Z,6.17
2024-01-15T18:57:06.549Z,6.00
2024-01-15T18:59:36.732Z,5.80
2024-01-15T19:02:05.158Z,6.73
2024-01-15T19:04:34.855Z,5.13
2024-01-15T19:07:03.336Z,5.87
2024-01-15T19:09:31.679Z,3.97
2024-01-15T19:11:59.968Z,3.73
2024-01-15T19:14:28.410Z,3.47
2024-01-15T19:16:57.877Z,2.63
2024-01-15T19:19:26.235Z,2.60
2024-01-15T19:21:55.902Z,3.27
2024-01-15T19:24:24.205Z,2.40
2024-01-15T19:26:54.806Z,1.90
2024-01-15T19:29:23.103Z,1.27
2024-01-15T19:31:51.822Z,2.13
2024-01-15T19:34:20.177Z,2.17
2024-01-15T19:36:48.533Z,2.10
2024-01-15T19:39:18.257Z,1.77
2024-01-15T19:41:46.577Z,1.77
2024-01-15T19:44:14.893Z,1.47
2024-01-15T19:46:43.201Z,2.17
2024-01-15T19:49:11.572Z,2.10
2024-01-15T19:51:40.384Z,1.47
2024-01-15T19:54:08.768Z,1.50
2024-01-15T19:56:39.057Z,1.37
2024-01-15T19:59:07.699Z,2.33
2024-01-15T20:01:35.940Z,1.47
2024-01-15T20:04:04.986Z,1.50
2024-01-15T20:06:33.588Z,1.50
2024-01-15T20:09:02.028Z,1.60
2024-01-15T20:11:30.582Z,2.03
2024-01-15T20:14:00.504Z,1.60
2024-01-15T20:16:29.083Z,1.57
2024-01-15T20:18:59.110Z,1.93
2024-01-15T20:21:28.596Z,1.87
2024-01-15T20:24:01.383Z,3.23
2024-01-15T20:26:32.350Z,2.37
2024-01-15T20:29:02.093Z,2.20
2024-01-15T20:31:30.514Z,1.73
2024-01-15T20:33:58.944Z,2.87
2024-01-15T20:36:27.310Z,2.90
2024-01-15T20:38:55.970Z,1.70
2024-01-15T20:41:25.850Z,3.63
2024-01-15T20:43:54.325Z,3.20
2024-01-15T20:46:24.506Z,2.77
2024-01-15T20:48:53.348Z,3.37
2024-01-15T20:51:21.924Z,2.93
2024-01-15T20:53:50.747Z,3.07
2024-01-15T20:56:19.353Z,3.40
2024-01-15T20:58:47.735Z,2.00
2024-01-15T21:01:18.738Z,2.87
2024-01-15T21:03:48.568Z,3.93
2024-01-15T21:06:17.073Z,3.07
2024-01-15T21:08:46.598Z,1.63
2024-01-15T21:11:15.734Z,3.47
2024-01-15T21:13:44.281Z,3.67
2024-01-15T21:16:13.316Z,3.37
2024-01-15T21:18:41.863Z,1.87
2024-01-15T21:21:12.035Z,3.37
2024-01-15T21:23:41.645Z,3.00
2024-01-15T21:26:10.826Z,2.87
2024-01-15T21:28:39.145Z,3.90
2024-01-15T21:31:07.633Z,3.83
2024-01-15T21:33:38.304Z,3.63
2024-01-15T21:36:07.163Z,3.10
2024-01-15T21:38:37.012Z,2.97
2024-01-15T21:41:05.411Z,2.63
2024-01-15T21:43:33.866Z,3.23
2024-01-15T21:46:02.574Z,2.87
2024-01-15T21:48:31.058Z,3.70
2024-01-15T21:50:59.489Z,2.67
2024-01-15T21:53:27.881Z,3.10
2024-01-15T21:55:57.812Z,2.90
2024-01-15T21:58:26.159Z,3.30
2024-01-15T22:00:54.537Z,2.80
2024-01-15T22:03:23.084Z,3.50
2024-01-15T22:05:54.013Z,2.77
2024-01-15T22:08:24.188Z,3.17
2024-01-15T22:10:54.257Z,2.87
2024-01-15T22:13:24.073Z,2.97
2024-01-15T22:15:52.375Z,2.97
2024-01-15T22:18:21.279Z,3.40
2024-01-15T22:20:49.742Z,2.60
2024-01-15T22:23:18.208Z,2.40
2024-01-15T22:25:46.605Z,2.20
2024-01-15T22:28:14.952Z,2.20
2024-01-15T22:30:44.903Z,2.07
2024-01-15T22:33:13.397Z,2.33
2024-01-15T22:35:41.872Z,2.53
2024-01-15T22:38:10.239Z,2.30
2024-01-15T22:40:38.696Z,2.50
2024-01-15T22:43:07.038Z,2.57
2024-01-15T22:45:35.687Z,2.17
2024-01-15T22:48:05.585Z,1.87
2024-01-15T22:50:34.178Z,1.70
2024-01-15T22:53:03.062Z,2.70
2024-01-15T22:55:31.440Z,2.87
2024-01-15T22:57:59.742Z,3.20
2024-01-15T23:00:29.661Z,3.10
2024-01-15T23:02:59.986Z,2.73
2024-01-15T23:05:29.983Z,2.73
2024-01-15T23:07:58.875Z,2.80
2024-01-15T23:10:27.230Z,2.73
2024-01-15T23:12:55.325Z,2.90
2024-01-15T23:15:24.458Z,2.70
2024-01-15T23:17:53.193Z,2.40
2024-01-15T23:20:21.811Z,2.90
2024-01-15T23:22:51.856Z,2.80
2024-01-15T23:25:20.307Z,3.50
2024-01-15T23:27:49.290Z,3.20
2024-01-15T23:30:17.819Z,3.37
2024-01-15T23:32:47.023Z,3.63
2024-01-15T23:35:16.620Z,2.80
2024-01-15T23:37:44.963Z,3.07
2024-01-15T23:40:15.069Z,3.23
2024-01-15T23:42:43.511Z,3.47
2024-01-15T23:45:12.422Z,3.90
2024-01-15T23:47:40.784Z,3.83
2024-01-15T23:50:09.483Z,4.43
2024-01-15T23:52:38.358Z,5.23
2024-01-15T23:55:07.216Z,4.50
2024-01-15T23:57:37.086Z,4.60
